createdAt,value
2023-02-11T00:01:29.741Z,19.67
2023-02-11T00:03:59.541Z,20.09
2023-02-11T00:06:29.840Z,19.85
2023-02-11T00:08:58.043Z,19.95
2023-02-11T00:11:30.330Z,19.92
2023-02-11T00:14:01.256Z,20.22
2023-02-11T00:16:31.264Z,19.78
2023-02-11T00:19:00.814Z,20.17
2023-02-11T00:21:28.942Z,20.13
2023-02-11T00:23:59.872Z,19.81
2023-02-11T00:26:30.650Z,19.69
2023-02-11T00:29:00.898Z,20.00
2023-02-11T00:31:29.568Z,20.02
2023-02-11T00:33:57.877Z,19.81
2023-02-11T00:36:29.378Z,20.13
2023-02-11T00:38:58.651Z,20.00
2023-02-11T00:41:27.109Z,19.77
2023-02-11T00:43:55.325Z,20.25
2023-02-11T00:46:24.894Z,19.80
2023-02-11T00:48:55.065Z,20.31
2023-02-11T00:51:23.143Z,20.17
2023-02-11T00:53:51.704Z,20.38
2023-02-11T00:56:19.756Z,20.40
2023-02-11T00:58:47.773Z,20.03
2023-02-11T01:01:16.175Z,19.86
2023-02-11T01:03:45.537Z,19.99
2023-02-11T01:06:13.852Z,19.82
2023-02-11T01:08:41.886Z,20.09
2023-02-11T01:11:14.765Z,19.88
2023-02-11T01:13:44.812Z,19.85
2023-02-11T01:16:13.426Z,20.19
2023-02-11T01:18:44.402Z,19.97
2023-02-11T01:21:13.893Z,20.02
2023-02-11T01:23:41.956Z,20.45
2023-02-11T01:26:10.079Z,20.15
2023-02-11T01:28:38.459Z,20.23
2023-02-11T01:31:06.544Z,20.35
2023-02-11T01:33:34.867Z,20.62
2023-02-11T01:36:03.785Z,20.37
2023-02-11T01:38:34.084Z,20.77
2023-02-11T01:41:03.541Z,20.27
2023-02-11T01:43:35.710Z,20.63
2023-02-11T01:46:21.116Z,20.76
2023-02-11T01:48:52.804Z,20.53
2023-02-11T01:51:25.294Z,20.43
2023-02-11T01:54:13.519Z,20.91
2023-02-11T01:57:03.297Z,20.83
2023-02-11T01:59:34.796Z,20.43
2023-02-11T02:02:09.187Z,20.90
2023-02-11T02:04:44.794Z,20.84
2023-02-11T02:07:18.884Z,20.90
2023-02-11T02:09:54.207Z,20.44
2023-02-11T02:12:22.250Z,20.84
2023-02-11T02:14:50.303Z,20.67
2023-02-11T02:17:30.447Z,20.50
2023-02-11T02:20:26.067Z,20.57
2023-02-11T02:23:17.158Z,20.65
2023-02-11T02:26:24.482Z,20.57
2023-02-11T02:29:34.352Z,20.54
2023-02-11T02:32:32.176Z,20.96
2023-02-11T02:35:11.026Z,20.79
2023-02-11T02:37:43.463Z,20.96
2023-02-11T02:40:16.932Z,20.95
2023-02-11T02:42:45.958Z,20.87
2023-02-11T02:45:15.311Z,20.79
2023-02-11T02:47:44.678Z,21.01
2023-02-11T02:50:16.509Z,21.10
2023-02-11T02:52:53.662Z,21.19
2023-02-11T02:55:33.650Z,21.13
2023-02-11T02:58:26.338Z,21.14
2023-02-11T03:01:02.929Z,21.21
2023-02-11T03:03:43.282Z,21.34
2023-02-11T03:06:18.637Z,21.39
2023-02-11T03:08:50.447Z,21.46
2023-02-11T03:11:21.617Z,21.45
2023-02-11T03:13:51.611Z,21.18
2023-02-11T03:16:24.075Z,21.14
2023-02-11T03:18:58.839Z,21.50
2023-02-11T03:21:27.878Z,21.67
2023-02-11T03:23:59.007Z,21.35
2023-02-11T03:26:31.536Z,21.60
2023-02-11T03:29:08.069Z,21.25
2023-02-11T03:31:41.519Z,21.68
2023-02-11T03:34:15.782Z,21.69
2023-02-11T03:36:47.708Z,21.14
2023-02-11T03:39:21.154Z,21.74
2023-02-11T03:41:50.946Z,21.65
2023-02-11T03:44:21.036Z,21.38
2023-02-11T03:46:51.826Z,21.55
2023-02-11T03:49:24.954Z,21.33
2023-02-11T03:51:54.410Z,21.55
2023-02-11T03:54:30.295Z,21.81
2023-02-11T03:57:00.432Z,21.52
2023-02-11T03:59:28.885Z,21.48
2023-02-11T04:01:57.728Z,21.41
2023-02-11T04:04:27.163Z,21.52
2023-02-11T04:06:55.176Z,21.68
2023-02-11T04:09:23.147Z,21.31
2023-02-11T04:11:51.094Z,21.35
2023-02-11T04:14:19.096Z,21.66
2023-02-11T04:16:47.112Z,21.27
2023-02-11T04:19:15.278Z,21.58
2023-02-11T04:21:44.645Z,21.77
2023-02-11T04:24:12.597Z,21.68
2023-02-11T04:26:40.571Z,21.63
2023-02-11T04:29:08.608Z,21.56
2023-02-11T04:31:36.667Z,21.94
2023-02-11T04:34:04.720Z,21.91
2023-02-11T04:36:32.700Z,21.85
2023-02-11T04:39:02.073Z,21.92
2023-02-11T04:41:30.047Z,21.59
2023-02-11T04:43:58.021Z,21.76
2023-02-11T04:46:26.011Z,21.65
2023-02-11T04:48:54.116Z,21.77
2023-02-11T04:51:22.174Z,21.76
2023-02-11T04:53:50.141Z,21.81
2023-02-11T04:56:19.425Z,22.08
2023-02-11T04:58:47.508Z,21.66
2023-02-11T05:01:17.298Z,22.13
2023-02-11T05:03:45.406Z,21.71
2023-02-11T05:06:13.700Z,22.05
2023-02-11T05:08:42.076Z,21.99
2023-02-11T05:11:17.009Z,21.80
2023-02-11T05:13:46.951Z,21.44
2023-02-11T05:16:15.967Z,21.58
2023-02-11T05:18:45.263Z,21.49
2023-02-11T05:21:17.387Z,21.48
2023-02-11T05:23:46.548Z,21.78
2023-02-11T05:26:15.419Z,21.68
2023-02-11T05:28:43.820Z,21.27
2023-02-11T05:31:14.822Z,21.27
2023-02-11T05:33:43.626Z,21.36
2023-02-11T05:36:13.444Z,21.22
2023-02-11T05:38:43.388Z,21.33
2023-02-11T05:41:12.201Z,21.21
2023-02-11T05:43:40.267Z,21.44
2023-02-11T05:46:08.675Z,21.15
2023-02-11T05:48:38.024Z,21.07
2023-02-11T05:51:06.398Z,21.45
2023-02-11T05:53:34.413Z,21.51
2023-02-11T05:56:02.982Z,21.25
2023-02-11T05:58:30.872Z,21.05
2023-02-11T06:00:58.910Z,21.15
2023-02-11T06:03:26.954Z,21.49
2023-02-11T06:05:56.410Z,21.38
2023-02-11T06:08:24.406Z,21.60
2023-02-11T06:10:52.456Z,21.29
2023-02-11T06:13:20.366Z,21.68
2023-02-11T06:15:57.566Z,21.17
2023-02-11T06:18:26.089Z,21.20
2023-02-11T06:20:54.016Z,21.48
2023-02-11T06:23:23.505Z,21.72
2023-02-11T06:25:52.155Z,21.51
2023-02-11T06:28:20.601Z,21.25
2023-02-11T06:30:48.695Z,21.67
2023-02-11T06:33:17.212Z,21.13
2023-02-11T06:35:45.143Z,21.15
2023-02-11T06:38:13.097Z,21.10
2023-02-11T06:40:42.817Z,21.39
2023-02-11T06:43:10.673Z,21.05
2023-02-11T06:45:38.683Z,21.04
2023-02-11T06:48:06.966Z,21.41
2023-02-11T06:50:34.999Z,20.85
2023-02-11T06:53:03.009Z,20.83
2023-02-11T06:55:31.051Z,20.84
2023-02-11T06:58:00.352Z,21.17
2023-02-11T07:00:29.099Z,20.74
2023-02-11T07:02:57.153Z,20.90
2023-02-11T07:05:25.327Z,20.94
2023-02-11T07:07:53.280Z,20.92
2023-02-11T07:10:21.179Z,20.78
2023-02-11T07:12:49.213Z,21.18
2023-02-11T07:15:18.768Z,20.85
2023-02-11T07:17:46.858Z,21.10
2023-02-11T07:20:15.740Z,21.27
2023-02-11T07:22:43.791Z,20.76
2023-02-11T07:25:11.815Z,21.17
2023-02-11T07:27:39.884Z,21.20
2023-02-11T07:30:08.687Z,20.75
2023-02-11T07:32:38.022Z,20.81
2023-02-11T07:35:06.775Z,20.92
2023-02-11T07:37:35.088Z,20.77
2023-02-11T07:40:03.421Z,20.78
2023-02-11T07:42:31.406Z,21.02
2023-02-11T07:44:59.400Z,20.82
2023-02-11T07:47:27.570Z,20.64
2023-02-11T07:49:56.927Z,21.04
2023-02-11T07:52:24.949Z,21.15
2023-02-11T07:54:52.951Z,20.87
2023-02-11T07:57:20.992Z,20.82
2023-02-11T07:59:48.946Z,20.91
2023-02-11T08:02:16.930Z,21.15
2023-02-11T08:04:47.058Z,21.13
2023-02-11T08:07:17.675Z,20.75
2023-02-11T08:09:45.916Z,20.77
2023-02-11T08:12:13.912Z,21.10
2023-02-11T08:14:41.897Z,20.91
2023-02-11T08:17:09.870Z,21.15
2023-02-11T08:19:38.126Z,20.69
2023-02-11T08:22:06.139Z,21.10
2023-02-11T08:24:35.438Z,21.21
2023-02-11T08:27:03.454Z,20.87
2023-02-11T08:29:31.518Z,20.86
2023-02-11T08:31:59.537Z,20.84
2023-02-11T08:34:27.609Z,21.23
2023-02-11T08:36:56.902Z,20.78
2023-02-11T08:39:24.830Z,20.92
2023-02-11T08:41:56.734Z,20.80
2023-02-11T08:44:26.839Z,20.90
2023-02-11T08:46:54.931Z,20.76
2023-02-11T08:49:23.296Z,20.94
2023-02-11T08:51:51.590Z,20.81
2023-02-11T08:54:19.622Z,21.28
2023-02-11T08:56:51.649Z,21.24
2023-02-11T08:59:21.217Z,21.10
2023-02-11T09:01:49.251Z,20.72
2023-02-11T09:04:17.538Z,20.67
2023-02-11T09:06:46.033Z,20.83
2023-02-11T09:09:15.952Z,20.59
2023-02-11T09:11:45.611Z,20.67
2023-02-11T09:14:19.481Z,20.53
2023-02-11T09:16:49.462Z,20.49
2023-02-11T09:19:17.888Z,20.81
2023-02-11T09:21:45.980Z,20.36
2023-02-11T09:24:14.024Z,20.61
2023-02-11T09:26:44.242Z,20.43
2023-02-11T09:29:12.600Z,20.48
2023-02-11T09:31:40.713Z,20.21
2023-02-11T09:34:11.678Z,20.14
2023-02-11T09:36:41.059Z,20.01
2023-02-11T09:39:13.062Z,20.43
2023-02-11T09:41:55.980Z,19.96
2023-02-11T09:44:27.422Z,19.98
2023-02-11T09:46:59.237Z,20.25
2023-02-11T09:49:38.024Z,20.31
2023-02-11T09:52:09.165Z,19.82
2023-02-11T09:54:41.555Z,20.05
2023-02-11T09:57:26.601Z,20.00
2023-02-11T09:59:57.155Z,20.03
2023-02-11T10:02:31.866Z,20.36
2023-02-11T10:05:18.616Z,20.37
2023-02-11T10:07:53.650Z,20.29
2023-02-11T10:10:34.606Z,20.11
2023-02-11T10:13:19.746Z,20.46
2023-02-11T10:15:53.188Z,20.51
2023-02-11T10:18:47.076Z,20.12
2023-02-11T10:21:25.891Z,20.49
2023-02-11T10:23:57.931Z,20.53
2023-02-11T10:26:31.965Z,20.15
2023-02-11T10:29:03.867Z,20.19
2023-02-11T10:31:39.053Z,20.53
2023-02-11T10:34:08.898Z,20.18
2023-02-11T10:36:41.099Z,20.41
2023-02-11T10:39:14.295Z,20.44
2023-02-11T10:41:46.131Z,20.44
2023-02-11T10:44:25.755Z,20.30
2023-02-11T10:46:55.115Z,20.10
2023-02-11T10:49:38.404Z,20.05
2023-02-11T10:52:32.029Z,20.48
2023-02-11T10:55:03.021Z,20.40
2023-02-11T10:57:35.865Z,20.53
2023-02-11T11:00:21.963Z,20.18
2023-02-11T11:02:56.283Z,20.07
2023-02-11T11:05:31.080Z,20.23
2023-02-11T11:08:01.645Z,20.27
2023-02-11T11:10:43.253Z,20.17
2023-02-11T11:13:32.423Z,20.27
2023-02-11T11:16:19.189Z,20.14
2023-02-11T11:18:48.792Z,19.73
2023-02-11T11:21:20.551Z,20.16
2023-02-11T11:23:56.101Z,19.89
2023-02-11T11:26:25.576Z,20.04
2023-02-11T11:28:58.690Z,19.79
2023-02-11T11:31:31.891Z,19.99
2023-02-11T11:34:01.948Z,19.97
2023-02-11T11:36:36.847Z,19.93
2023-02-11T11:39:23.314Z,19.81
2023-02-11T11:41:56.746Z,19.79
2023-02-11T11:44:28.867Z,19.43
2023-02-11T11:47:16.990Z,19.60
2023-02-11T11:49:50.222Z,19.35
2023-02-11T11:52:29.406Z,18.85
2023-02-11T11:55:05.816Z,19.13
2023-02-11T11:57:38.467Z,19.13
2023-02-11T12:00:14.858Z,18.60
2023-02-11T12:03:11.012Z,18.90
2023-02-11T12:05:47.460Z,18.37
2023-02-11T12:08:22.351Z,18.73
2023-02-11T12:11:08.378Z,18.35
2023-02-11T12:13:44.226Z,18.30
2023-02-11T12:16:24.964Z,18.15
2023-02-11T12:19:21.601Z,18.15
2023-02-11T12:21:57.503Z,18.46
2023-02-11T12:24:42.538Z,18.04
2023-02-11T12:27:19.598Z,17.92
2023-02-11T12:30:00.775Z,18.10
2023-02-11T12:32:36.859Z,17.60
2023-02-11T12:35:23.777Z,18.04
2023-02-11T12:38:15.919Z,17.52
2023-02-11T12:40:47.199Z,17.56
2023-02-11T12:43:22.074Z,17.53
2023-02-11T12:46:14.876Z,17.47
2023-02-11T12:49:16.310Z,17.87
2023-02-11T12:52:01.154Z,17.59
2023-02-11T12:54:32.757Z,17.69
2023-02-11T12:57:04.541Z,17.71
2023-02-11T12:59:45.583Z,17.68
2023-02-11T13:02:24.383Z,17.66
2023-02-11T13:04:58.373Z,17.31
2023-02-11T13:07:32.230Z,17.30
2023-02-11T13:10:07.736Z,17.19
2023-02-11T13:12:55.250Z,17.75
2023-02-11T13:15:25.936Z,17.78
2023-02-11T13:18:01.088Z,18.90
2023-02-11T13:20:39.486Z,19.04
2023-02-11T13:23:17.062Z,21.53
2023-02-11T13:25:51.586Z,22.09
2023-02-11T13:28:30.519Z,22.79
2023-02-11T13:31:03.600Z,23.72
2023-02-11T13:33:37.519Z,24.22
2023-02-11T13:36:20.300Z,24.30
2023-02-11T13:39:03.922Z,23.07
2023-02-11T13:41:43.580Z,22.83
2023-02-11T13:44:25.476Z,22.53
2023-02-11T13:47:04.752Z,21.71
2023-02-11T13:49:37.034Z,21.78
2023-02-11T13:52:07.503Z,21.02
2023-02-11T13:54:38.865Z,20.96
2023-02-11T13:57:30.889Z,20.76
2023-02-11T14:00:01.127Z,20.65
2023-02-11T14:02:51.472Z,20.87
2023-02-11T14:05:52.536Z,20.53
2023-02-11T14:08:43.294Z,20.02
2023-02-11T14:11:45.685Z,19.77
2023-02-11T14:14:21.762Z,19.58
2023-02-11T14:17:30.879Z,19.66
2023-02-11T14:20:02.124Z,19.35
2023-02-11T14:22:41.553Z,19.45
2023-02-11T14:25:21.508Z,19.07
2023-02-11T14:27:55.325Z,19.18
2023-02-11T14:30:50.032Z,18.62
2023-02-11T14:33:43.715Z,19.07
2023-02-11T14:36:32.464Z,18.52
2023-02-11T14:39:10.011Z,18.64
2023-02-11T14:41:42.913Z,18.66
2023-02-11T14:44:16.583Z,18.60
2023-02-11T14:46:50.043Z,18.79
2023-02-11T14:49:27.086Z,18.58
2023-02-11T14:51:59.872Z,18.43
2023-02-11T14:54:29.376Z,18.46
2023-02-11T14:57:12.867Z,18.39
2023-02-11T14:59:41.823Z,18.23
2023-02-11T15:02:22.978Z,18.19
2023-02-11T15:04:51.007Z,18.30
2023-02-11T15:07:20.335Z,18.25
2023-02-11T15:09:51.270Z,17.77
2023-02-11T15:12:23.696Z,17.71
2023-02-11T15:14:55.225Z,18.12
2023-02-11T15:17:26.726Z,18.02
2023-02-11T15:19:57.591Z,17.59
2023-02-11T15:22:30.246Z,17.89
2023-02-11T15:25:04.068Z,17.88
2023-02-11T15:27:41.073Z,17.98
2023-02-11T15:30:26.414Z,17.84
2023-02-11T15:32:58.785Z,18.02
2023-02-11T15:35:29.023Z,17.58
2023-02-11T15:37:59.564Z,17.85
2023-02-11T15:40:29.826Z,17.85
2023-02-11T15:42:59.027Z,17.44
2023-02-11T15:45:32.235Z,17.42
2023-02-11T15:48:08.076Z,17.77
2023-02-11T15:50:40.519Z,17.73
2023-02-11T15:53:23.330Z,17.84
2023-02-11T15:55:54.150Z,17.38
2023-02-11T15:58:24.001Z,17.47
2023-02-11T16:00:59.626Z,17.82
2023-02-11T16:03:32.653Z,17.45
2023-02-11T16:06:19.533Z,17.33
2023-02-11T16:09:06.469Z,17.76
2023-02-11T16:11:36.508Z,17.82
2023-02-11T16:14:23.135Z,17.37
2023-02-11T16:16:55.733Z,17.90
2023-02-11T16:19:25.884Z,18.13
2023-02-11T16:21:56.190Z,19.12
2023-02-11T16:24:28.572Z,19.72
2023-02-11T16:27:00.755Z,19.19
2023-02-11T16:29:30.453Z,19.21
2023-02-11T16:32:08.661Z,19.59
2023-02-11T16:34:37.291Z,19.43
2023-02-11T16:37:06.494Z,18.90
2023-02-11T16:39:36.075Z,18.90
2023-02-11T16:42:07.450Z,18.51
2023-02-11T16:44:36.002Z,18.58
2023-02-11T16:47:06.110Z,18.82
2023-02-11T16:49:37.335Z,18.43
2023-02-11T16:52:09.155Z,18.75
2023-02-11T16:54:38.629Z,18.54
2023-02-11T16:57:12.278Z,18.30
2023-02-11T16:59:40.415Z,18.43
2023-02-11T17:02:15.048Z,17.88
2023-02-11T17:04:43.402Z,18.17
2023-02-11T17:07:11.396Z,18.19
2023-02-11T17:09:40.824Z,18.03
2023-02-11T17:12:08.782Z,17.50
2023-02-11T17:14:36.700Z,17.86
2023-02-11T17:17:04.674Z,17.58
2023-02-11T17:19:32.686Z,17.69
2023-02-11T17:22:00.600Z,17.76
2023-02-11T17:24:28.728Z,17.81
2023-02-11T17:26:57.999Z,17.42
2023-02-11T17:29:27.109Z,17.83
2023-02-11T17:31:55.411Z,17.74
2023-02-11T17:34:24.147Z,17.86
2023-02-11T17:36:52.152Z,17.51
2023-02-11T17:39:21.130Z,17.27
2023-02-11T17:41:49.199Z,17.42
2023-02-11T17:44:18.730Z,17.67
2023-02-11T17:46:46.808Z,17.49
2023-02-11T17:49:15.791Z,17.43
2023-02-11T17:51:43.792Z,17.28
2023-02-11T17:54:14.296Z,17.25
2023-02-11T17:56:43.202Z,17.44
2023-02-11T17:59:13.476Z,17.12
2023-02-11T18:01:44.725Z,17.04
2023-02-11T18:04:17.498Z,17.07
2023-02-11T18:06:46.223Z,17.24
2023-02-11T18:09:14.455Z,17.39
2023-02-11T18:11:43.077Z,17.38
2023-02-11T18:14:11.573Z,17.20
2023-02-11T18:16:43.056Z,17.22
2023-02-11T18:19:13.495Z,16.88
2023-02-11T18:21:41.633Z,16.93
2023-02-11T18:24:09.740Z,16.80
2023-02-11T18:26:37.714Z,16.91
2023-02-11T18:29:07.034Z,16.81
2023-02-11T18:31:35.981Z,17.21
2023-02-11T18:34:05.585Z,17.09
2023-02-11T18:36:35.778Z,17.32
2023-02-11T18:39:04.881Z,16.91
2023-02-11T18:41:33.073Z,17.33
2023-02-11T18:44:03.206Z,17.12
2023-02-11T18:46:31.687Z,16.98
2023-02-11T18:48:59.714Z,17.26
2023-02-11T18:51:27.977Z,17.21
2023-02-11T18:53:57.287Z,17.33
2023-02-11T18:56:27.797Z,16.91
2023-02-11T18:58:56.549Z,16.94
2023-02-11T19:01:27.397Z,17.05
2023-02-11T19:03:57.362Z,17.14
2023-02-11T19:06:27.274Z,17.00
2023-02-11T19:08:59.705Z,16.85
2023-02-11T19:11:43.322Z,16.99
2023-02-11T19:14:11.746Z,16.93
2023-02-11T19:16:40.363Z,16.79
2023-02-11T19:19:09.032Z,17.04
2023-02-11T19:21:37.281Z,17.18
2023-02-11T19:24:09.308Z,16.93
2023-02-11T19:26:38.168Z,16.83
2023-02-11T19:29:06.553Z,16.96
2023-02-11T19:31:34.991Z,16.47
2023-02-11T19:34:03.502Z,17.01
2023-02-11T19:36:32.208Z,16.58
2023-02-11T19:39:01.440Z,16.56
2023-02-11T19:41:31.760Z,17.03
2023-02-11T19:43:59.699Z,17.01
2023-02-11T19:46:29.636Z,16.83
2023-02-11T19:48:57.662Z,16.84
2023-02-11T19:51:25.693Z,16.80
2023-02-11T19:53:53.974Z,16.97
2023-02-11T19:56:22.412Z,16.87
2023-02-11T19:58:51.761Z,16.72
2023-02-11T20:01:22.028Z,16.95
2023-02-11T20:03:51.017Z,16.84
2023-02-11T20:06:21.614Z,16.88
2023-02-11T20:08:49.643Z,16.85
2023-02-11T20:11:18.479Z,16.87
2023-02-11T20:13:46.434Z,17.07
2023-02-11T20:16:17.723Z,17.12
2023-02-11T20:18:47.354Z,16.64
2023-02-11T20:21:18.087Z,16.53
2023-02-11T20:23:46.969Z,16.86
2023-02-11T20:26:16.709Z,16.92
2023-02-11T20:28:45.260Z,16.66
2023-02-11T20:31:13.516Z,16.83
2023-02-11T20:33:43.562Z,16.68
2023-02-11T20:36:14.618Z,16.61
2023-02-11T20:38:43.248Z,17.00
2023-02-11T20:41:14.424Z,16.52
2023-02-11T20:43:43.075Z,16.70
2023-02-11T20:46:11.023Z,16.79
2023-02-11T20:48:39.110Z,16.90
2023-02-11T20:51:10.288Z,16.90
2023-02-11T20:53:40.446Z,16.61
2023-02-11T20:56:10.660Z,16.52
2023-02-11T20:58:39.606Z,16.60
2023-02-11T21:01:09.176Z,16.98
2023-02-11T21:03:37.230Z,16.46
2023-02-11T21:06:05.593Z,16.55
2023-02-11T21:08:34.957Z,16.58
2023-02-11T21:11:02.966Z,16.64
2023-02-11T21:13:31.078Z,16.62
2023-02-11T21:15:59.150Z,16.62
2023-02-11T21:18:27.219Z,16.67
2023-02-11T21:20:55.994Z,16.80
2023-02-11T21:23:24.841Z,16.78
2023-02-11T21:25:54.882Z,16.78
2023-02-11T21:28:26.195Z,17.13
2023-02-11T21:30:54.957Z,17.32
2023-02-11T21:33:23.586Z,17.39
2023-02-11T21:35:55.598Z,17.12
2023-02-11T21:38:24.395Z,17.30
2023-02-11T21:40:52.670Z,17.19
2023-02-11T21:43:22.779Z,16.84
2023-02-11T21:45:52.445Z,16.94
2023-02-11T21:48:20.563Z,16.82
2023-02-11T21:50:48.875Z,16.96
2023-02-11T21:53:16.994Z,17.12
2023-02-11T21:55:44.976Z,17.14
2023-02-11T21:58:14.585Z,16.75
2023-02-11T22:00:43.986Z,16.86
2023-02-11T22:03:13.082Z,16.83
2023-02-11T22:05:41.804Z,17.03
2023-02-11T22:08:09.752Z,16.76
2023-02-11T22:10:38.947Z,16.88
2023-02-11T22:13:06.899Z,17.08
2023-02-11T22:15:34.859Z,16.64
2023-02-11T22:18:04.183Z,16.61
2023-02-11T22:20:32.255Z,16.80
2023-02-11T22:23:00.286Z,16.79
2023-02-11T22:25:28.288Z,16.56
2023-02-11T22:27:56.585Z,16.80
2023-02-11T22:30:24.550Z,16.58
2023-02-11T22:32:52.608Z,17.06
2023-02-11T22:35:21.949Z,16.78
2023-02-11T22:37:49.902Z,16.80
2023-02-11T22:40:18.035Z,16.87
2023-02-11T22:42:46.087Z,17.01
2023-02-11T22:45:14.062Z,16.98
2023-02-11T22:47:42.090Z,16.55
2023-02-11T22:50:10.578Z,16.86
2023-02-11T22:52:39.848Z,16.77
2023-02-11T22:55:08.170Z,16.23
2023-02-11T22:57:36.187Z,16.80
2023-02-11T23:00:05.561Z,16.73
2023-02-11T23:02:34.397Z,16.28
2023-02-11T23:05:02.650Z,16.59
2023-02-11T23:07:30.656Z,16.25
2023-02-11T23:09:59.969Z,16.71
2023-02-11T23:12:28.061Z,16.57
2023-02-11T23:14:56.066Z,16.53
2023-02-11T23:17:24.788Z,16.16
2023-02-11T23:19:52.926Z,16.30
2023-02-11T23:22:20.812Z,16.63
2023-02-11T23:24:48.737Z,16.62
2023-02-11T23:27:18.016Z,16.59
2023-02-11T23:29:46.022Z,16.56
2023-02-11T23:32:14.132Z,16.53
2023-02-11T23:34:42.045Z,16.13
2023-02-11T23:37:10.362Z,16.17
2023-02-11T23:39:38.539Z,16.19
2023-02-11T23:42:06.971Z,16.41
2023-02-11T23:44:36.322Z,16.25
2023-02-11T23:47:04.752Z,16.56
2023-02-11T23:49:32.862Z,16.16
2023-02-11T23:52:00.854Z,16.56
2023-02-11T23:54:29.030Z,16.66
2023-02-11T23:56:57.104Z,16.31
2023-02-11T23:59:25.170Z,16.51
